Time;durP1;ratioP1;P1;durP2;ratioP2;P2;SDS_P1;SDS_P2;PMS_P1;PMS_P2;Temp;Humidity;BMP_temperature;BMP_pressure;BME280_temperature;BME280_humidity;BME280_pressure;Samples;Min_cycle;Max_cycle;Signal;HPM_P1;HPM_P2
2023/10/05 00:00:40;;;;;;;4.30;2.00;;;9.40;99.90;;;;;;4995756;28;20382;-74
2023/10/05 00:03:06;;;;;;;4.32;1.60;;;9.40;99.90;;;;;;4995841;28;20109;-74
2023/10/05 00:05:37;;;;;;;3.67;1.60;;;9.40;99.90;;;;;;4995598;28;20391;-74
2023/10/05 00:08:04;;;;;;;4.35;2.00;;;9.40;99.90;;;;;;4995900;28;20030;-74
2023/10/05 00:10:33;;;;;;;3.58;1.83;;;9.40;99.90;;;;;;4995537;28;20022;-74
2023/10/05 00:13:05;;;;;;;5.85;1.80;;;9.40;99.90;;;;;;4995640;28;20027;-74
2023/10/05 00:15:32;;;;;;;3.17;1.45;;;9.40;99.90;;;;;;4978033;28;20030;-74
2023/10/05 00:17:58;;;;;;;3.35;1.80;;;9.40;99.90;;;;;;4977927;28;20050;-74
2023/10/05 00:20:31;;;;;;;5.20;1.83;;;9.40;99.90;;;;;;4995465;28;20482;-74
2023/10/05 00:23:00;;;;;;;4.00;1.70;;;9.40;99.90;;;;;;4995772;28;20030;-74
2023/10/05 00:25:28;;;;;;;3.15;1.80;;;9.40;99.90;;;;;;4995277;28;20138;-74
2023/10/05 00:27:56;;;;;;;5.05;1.90;;;9.40;99.90;;;;;;4995248;28;20109;-74
2023/10/05 00:30:22;;;;;;;8.40;2.30;;;9.40;99.90;;;;;;4995182;28;20027;-74
2023/10/05 00:32:52;;;;;;;6.70;2.55;;;9.40;99.90;;;;;;4995153;28;20030;-74
2023/10/05 00:35:26;;;;;;;6.32;2.53;;;9.40;99.90;;;;;;4995628;28;20378;-74
2023/10/05 00:37:52;;;;;;;6.60;2.67;;;9.50;99.90;;;;;;4995008;28;20038;-74
2023/10/05 00:40:43;;;;;;;6.05;2.47;;;9.40;99.90;;;;;;4994413;28;20076;-74
2023/10/05 00:43:21;;;;;;;5.47;2.72;;;9.40;99.90;;;;;;4993192;28;20045;-74
2023/10/05 00:45:47;;;;;;;7.50;3.05;;;9.40;99.90;;;;;;4994910;28;20471;-74
2023/10/05 00:48:29;;;;;;;6.80;3.00;;;9.40;99.90;;;;;;4977462;28;20034;-74
2023/10/05 00:51:06;;;;;;;5.38;3.00;;;9.50;99.90;;;;;;4994823;28;20093;-74
2023/10/05 00:53:32;;;;;;;11.38;3.58;;;9.50;99.90;;;;;;4995081;28;20023;-74
2023/10/05 00:56:07;;;;;;;7.88;3.38;;;9.50;99.90;;;;;;4994661;28;20501;-74
2023/10/05 00:58:37;;;;;;;5.93;3.30;;;9.50;99.90;;;;;;4994816;28;20118;-74
2023/10/05 01:01:05;;;;;;;7.32;3.80;;;9.50;99.90;;;;;;4994725;28;20038;-74
2023/10/05 01:03:35;;;;;;;6.25;3.38;;;9.50;99.90;;;;;;4995228;28;20069;-74
2023/10/05 01:06:31;;;;;;;6.93;3.05;;;9.50;99.90;;;;;;4993714;28;20030;-74
2023/10/05 01:09:00;;;;;;;5.68;3.20;;;9.50;99.90;;;;;;4964793;28;20031;-74
2023/10/05 01:11:52;;;;;;;5.35;2.78;;;9.50;99.90;;;;;;4994172;28;20033;-74
2023/10/05 01:14:18;;;;;;;5.78;2.83;;;9.50;99.90;;;;;;4994223;28;20022;-74
2023/10/05 01:16:45;;;;;;;6.50;2.80;;;9.50;99.90;;;;;;4977030;28;20023;-74
2023/10/05 01:19:11;;;;;;;6.00;2.85;;;9.50;99.90;;;;;;4994225;28;20019;-74
2023/10/05 01:21:39;;;;;;;4.30;2.72;;;9.50;99.90;;;;;;4993833;28;20110;-74
2023/10/05 01:24:05;;;;;;;5.53;2.97;;;9.60;99.90;;;;;;4994122;28;20034;-74
2023/10/05 01:26:32;;;;;;;7.18;3.35;;;9.60;99.90;;;;;;4993950;28;20088;-74
2023/10/05 01:28:58;;;;;;;5.38;2.90;;;9.50;99.90;;;;;;4993333;28;20032;-74
2023/10/05 01:31:24;;;;;;;5.70;3.35;;;9.60;99.90;;;;;;4993941;28;20027;-74
2023/10/05 01:33:50;;;;;;;4.63;2.85;;;9.60;99.90;;;;;;4994009;28;20038;-74
2023/10/05 01:36:17;;;;;;;4.72;2.80;;;9.60;99.90;;;;;;4993648;28;20018;-74
2023/10/05 01:38:45;;;;;;;5.50;3.58;;;9.60;99.90;;;;;;4993942;28;20023;-74
2023/10/05 01:41:11;;;;;;;5.18;3.67;;;9.50;99.90;;;;;;4976546;28;20460;-74
2023/10/05 01:43:42;;;;;;;4.47;2.75;;;9.60;99.90;;;;;;4994345;28;20031;-74
2023/10/05 01:46:10;;;;;;;5.90;2.90;;;9.60;99.90;;;;;;4978072;28;20374;-74
2023/10/05 01:48:40;;;;;;;5.38;3.33;;;9.60;99.90;;;;;;4993968;28;20034;-74
2023/10/05 01:51:23;;;;;;;6.05;3.00;;;9.60;99.90;;;;;;4993965;28;20034;-74
2023/10/05 01:53:52;;;;;;;4.78;2.80;;;9.60;99.90;;;;;;4979251;28;20027;-74
2023/10/05 01:56:20;;;;;;;4.28;2.67;;;9.60;99.90;;;;;;4996923;28;20022;-73
2023/10/05 01:58:54;;;;;;;5.28;3.13;;;9.60;99.90;;;;;;4997989;28;20426;-74
2023/10/05 02:01:21;;;;;;;4.22;2.67;;;9.60;99.90;;;;;;4998555;28;20034;-74
2023/10/05 02:03:54;;;;;;;3.95;2.50;;;9.60;99.90;;;;;;4997858;28;20026;-74
2023/10/05 02:06:20;;;;;;;4.72;2.95;;;9.60;99.90;;;;;;4997889;28;20079;-74
2023/10/05 02:08:46;;;;;;;4.43;2.65;;;9.60;99.90;;;;;;4997830;28;20022;-74
2023/10/05 02:11:23;;;;;;;5.03;2.83;;;9.60;99.90;;;;;;4997721;28;20030;-74
2023/10/05 02:13:49;;;;;;;5.70;3.05;;;9.50;99.90;;;;;;4998006;28;20018;-74
2023/10/05 02:16:27;;;;;;;4.80;2.90;;;9.60;99.90;;;;;;4997660;28;20029;-74
2023/10/05 02:18:55;;;;;;;5.45;3.28;;;9.60;99.90;;;;;;4997946;28;20026;-74
2023/10/05 02:21:31;;;;;;;5.82;3.60;;;9.50;99.90;;;;;;4997606;28;20053;-74
2023/10/05 02:24:02;;;;;;;7.72;3.60;;;9.60;99.90;;;;;;4997609;28;20026;-74
2023/10/05 02:26:33;;;;;;;7.30;3.07;;;9.50;99.90;;;;;;4997257;28;20042;-74
2023/10/05 02:28:59;;;;;;;5.82;3.20;;;9.50;99.90;;;;;;4997763;28;20296;-74
2023/10/05 02:31:29;;;;;;;7.07;4.30;;;9.50;99.90;;;;;;4997585;28;20467;-74
2023/10/05 02:33:58;;;;;;;6.70;4.25;;;9.50;99.90;;;;;;4997152;28;20026;-74
2023/10/05 02:36:26;;;;;;;6.70;3.55;;;9.50;99.90;;;;;;4997519;28;20393;-74
2023/10/05 02:38:53;;;;;;;7.00;3.42;;;9.50;99.90;;;;;;4997304;28;20545;-74
2023/10/05 02:41:39;;;;;;;7.75;3.78;;;9.50;99.90;;;;;;4979772;28;20041;-74
2023/10/05 02:44:17;;;;;;;6.30;3.47;;;9.50;99.90;;;;;;4982546;28;20050;-74
2023/10/05 02:46:48;;;;;;;6.57;3.28;;;9.50;99.90;;;;;;4997625;28;20023;-74
2023/10/05 02:49:18;;;;;;;;;;;9.40;99.90;;;;;;4997825;28;20113;-74
2023/10/05 02:51:44;;;;;;;8.10;4.00;;;9.40;99.90;;;;;;4997001;28;19910;-74
2023/10/05 02:54:12;;;;;;;8.10;3.13;;;9.40;99.90;;;;;;4996992;28;20110;-74
2023/10/05 02:56:42;;;;;;;7.63;3.90;;;9.30;99.90;;;;;;5016347;28;20080;-74
2023/10/05 02:59:11;;;;;;;5.50;3.50;;;9.30;99.90;;;;;;5016553;28;20026;-74
2023/10/05 03:01:38;;;;;;;8.15;3.63;;;9.30;99.90;;;;;;4998810;28;20069;-74
2023/10/05 03:04:10;;;;;;;4.95;2.97;;;9.20;99.90;;;;;;5016771;28;20076;-74
2023/10/05 03:06:37;;;;;;;7.18;3.63;;;9.20;99.90;;;;;;5015909;28;20029;-74
2023/10/05 03:09:07;;;;;;;6.85;4.10;;;9.10;99.90;;;;;;5016324;28;20084;-74
2023/10/05 03:11:40;;;;;;;7.40;3.97;;;9.20;99.90;;;;;;5016301;28;20394;-74
2023/10/05 03:14:09;;;;;;;6.63;3.30;;;9.10;99.90;;;;;;5016202;28;20032;-74
2023/10/05 03:16:43;;;;;;;5.88;3.10;;;9.10;99.90;;;;;;5016133;28;20026;-74
2023/10/05 03:19:15;;;;;;;5.30;2.90;;;9.10;99.90;;;;;;4998672;28;20076;-74
2023/10/05 03:21:42;;;;;;;4.38;2.33;;;9.10;99.90;;;;;;4999247;28;20022;-74
2023/10/05 03:24:13;;;;;;;4.03;2.58;;;9.10;99.90;;;;;;5016296;28;20030;-74
2023/10/05 03:26:40;;;;;;;4.57;2.38;;;9.10;99.90;;;;;;5016863;28;20033;-74
2023/10/05 03:29:07;;;;;;;6.25;3.30;;;9.10;99.90;;;;;;5016168;28;20486;-73
2023/10/05 03:31:37;;;;;;;5.20;3.25;;;9.10;99.90;;;;;;4998475;28;20033;-73
2023/10/05 03:34:07;;;;;;;4.13;2.45;;;9.10;99.90;;;;;;4999366;28;20022;-74
2023/10/05 03:36:33;;;;;;;4.50;2.55;;;9.10;99.90;;;;;;5015846;28;20052;-73
2023/10/05 03:39:03;;;;;;;4.53;2.58;;;9.10;99.90;;;;;;4998497;28;20386;-74
2023/10/05 03:41:29;;;;;;;3.65;2.20;;;9.20;99.90;;;;;;4999409;28;20100;-74
2023/10/05 03:43:55;;;;;;;6.20;2.70;;;9.20;99.90;;;;;;4998673;28;20465;-74
2023/10/05 03:46:24;;;;;;;5.00;2.78;;;9.10;99.90;;;;;;5015613;28;20034;-73
2023/10/05 03:48:52;;;;;;;4.40;2.33;;;9.10;99.90;;;;;;5015695;28;20026;-73
2023/10/05 03:51:18;;;;;;;3.88;2.33;;;9.10;99.90;;;;;;5015453;28;20088;-73
2023/10/05 03:53:48;;;;;;;4.30;2.58;;;9.10;99.90;;;;;;4998135;28;20470;-73
2023/10/05 03:56:18;;;;;;;4.53;2.45;;;9.10;99.90;;;;;;5015236;28;20018;-73
2023/10/05 03:58:45;;;;;;;4.07;2.10;;;9.10;99.90;;;;;;4996305;28;20113;-74
2023/10/05 04:01:12;;;;;;;4.55;2.53;;;9.10;99.90;;;;;;4995638;28;20030;-73
2023/10/05 04:03:38;;;;;;;4.88;2.53;;;9.10;99.90;;;;;;4995093;28;20030;-73
2023/10/05 04:06:17;;;;;;;5.22;2.20;;;9.10;99.90;;;;;;4995390;28;20478;-73
2023/10/05 04:08:54;;;;;;;4.78;2.65;;;9.00;99.90;;;;;;4990541;28;20042;-74
2023/10/05 04:11:21;;;;;;;5.47;2.40;;;9.00;99.90;;;;;;4994604;28;20479;-76
2023/10/05 04:13:49;;;;;;;4.43;2.38;;;9.00;99.90;;;;;;4995463;28;20391;-75
2023/10/05 04:16:22;;;;;;;4.13;2.20;;;9.00;99.90;;;;;;4995689;28;20026;-75
2023/10/05 04:18:50;;;;;;;5.35;2.50;;;9.00;99.90;;;;;;4993644;28;20025;-75
2023/10/05 04:21:18;;;;;;;5.20;2.92;;;9.00;99.90;;;;;;4995289;28;20027;-75
2023/10/05 04:23:49;;;;;;;4.97;2.45;;;8.90;99.90;;;;;;4977643;28;20035;-75
2023/10/05 04:26:17;;;;;;;4.95;2.60;;;8.90;99.90;;;;;;4994630;28;20050;-75
2023/10/05 04:28:52;;;;;;;5.38;2.83;;;8.80;99.90;;;;;;4993919;28;20039;-75
2023/10/05 04:31:30;;;;;;;4.93;3.28;;;8.90;99.90;;;;;;4995763;28;20030;-75
2023/10/05 04:33:56;;;;;;;5.13;3.30;;;8.80;99.90;;;;;;4978002;28;20162;-76
2023/10/05 04:36:23;;;;;;;8.07;3.78;;;8.70;99.90;;;;;;4977449;28;20054;-76
2023/10/05 04:38:56;;;;;;;6.78;3.35;;;8.60;99.90;;;;;;4995100;28;20030;-75
2023/10/05 04:41:31;;;;;;;4.35;2.53;;;8.50;99.90;;;;;;4995078;28;20037;-75
2023/10/05 04:43:57;;;;;;;5.47;3.05;;;8.40;99.90;;;;;;4994688;28;20022;-75
2023/10/05 04:46:24;;;;;;;4.40;2.58;;;8.40;99.90;;;;;;4994366;28;20041;-75
2023/10/05 04:49:02;;;;;;;5.90;2.90;;;8.40;99.90;;;;;;4992146;28;20088;-75
2023/10/05 04:51:30;;;;;;;5.13;2.92;;;8.40;99.90;;;;;;4992679;28;20031;-75
2023/10/05 04:53:58;;;;;;;6.38;3.00;;;8.50;99.90;;;;;;4993689;28;20050;-75
2023/10/05 04:59:36;;;;;;;6.57;3.03;;;8.60;99.90;;;;;;4972391;28;20050;-75
2023/10/05 05:02:18;;;;;;;5.13;2.30;;;8.60;99.90;;;;;;4994772;28;20121;-75
2023/10/05 05:07:13;;;;;;;5.88;2.83;;;8.50;99.90;;;;;;4977889;28;19910;-76
2023/10/05 05:09:41;;;;;;;5.07;3.25;;;8.50;99.90;;;;;;4994538;28;20018;-75
2023/10/05 05:12:09;;;;;;;6.47;3.78;;;8.50;99.90;;;;;;4995192;28;20031;-75
2023/10/05 05:14:41;;;;;;;6.70;3.58;;;8.50;99.90;;;;;;4994470;28;20136;-75
2023/10/05 05:17:10;;;;;;;7.13;3.55;;;8.40;99.90;;;;;;4994480;28;20052;-75
2023/10/05 05:19:36;;;;;;;8.88;4.10;;;8.40;99.90;;;;;;4994638;28;20022;-75
2023/10/05 05:22:05;;;;;;;8.57;4.72;;;8.50;99.90;;;;;;4994554;28;20041;-75
2023/10/05 05:24:35;;;;;;;10.10;5.90;;;8.50;99.90;;;;;;4994047;28;20517;-75
2023/10/05 05:27:17;;;;;;;12.43;6.55;;;8.50;99.90;;;;;;4994370;28;20038;-75
2023/10/05 05:29:44;;;;;;;10.80;5.25;;;8.60;99.90;;;;;;4994112;28;20363;-75
2023/10/05 05:32:10;;;;;;;8.25;4.32;;;8.60;99.90;;;;;;4977179;28;20414;-76
2023/10/05 05:34:42;;;;;;;7.47;4.13;;;8.60;99.90;;;;;;4994158;28;20024;-75
2023/10/05 05:37:13;;;;;;;8.13;3.53;;;8.70;99.90;;;;;;4994465;28;20023;-75
2023/10/05 05:39:40;;;;;;;4.35;2.58;;;8.60;99.90;;;;;;4994153;28;20101;-75
2023/10/05 05:42:13;;;;;;;4.80;2.88;;;8.60;99.90;;;;;;4977028;28;20109;-75
2023/10/05 05:44:40;;;;;;;3.40;1.90;;;8.70;99.90;;;;;;4994635;28;20026;-75
2023/10/05 05:47:10;;;;;;;3.38;2.28;;;8.60;99.90;;;;;;4960655;28;20034;-75
2023/10/05 05:49:40;;;;;;;5.55;3.17;;;8.50;99.90;;;;;;4994059;28;20120;-75
2023/10/05 05:52:08;;;;;;;3.22;1.90;;;8.50;99.90;;;;;;4993968;28;20157;-75
2023/10/05 05:54:37;;;;;;;3.15;1.63;;;8.40;99.90;;;;;;4976495;28;20168;-75
2023/10/05 05:57:07;;;;;;;2.70;1.50;;;8.30;99.90;;;;;;4994002;28;20057;-76
2023/10/05 05:59:34;;;;;;;2.92;1.80;;;8.30;99.90;;;;;;4994287;28;20030;-75
2023/10/05 06:02:03;;;;;;;3.65;2.00;;;8.30;99.90;;;;;;4993904;28;20498;-75
2023/10/05 06:04:32;;;;;;;3.45;2.10;;;8.30;99.90;;;;;;4993776;28;20022;-75
2023/10/05 06:06:58;;;;;;;3.65;1.73;;;8.30;99.90;;;;;;4994215;28;20445;-75
2023/10/05 06:09:26;;;;;;;3.05;1.75;;;8.30;99.90;;;;;;4993836;28;20041;-75
2023/10/05 06:11:53;;;;;;;2.20;1.38;;;8.20;99.90;;;;;;4994105;28;20026;-75
2023/10/05 06:14:19;;;;;;;2.30;1.42;;;8.10;99.90;;;;;;4993999;28;20022;-75
2023/10/05 06:16:45;;;;;;;4.07;1.85;;;8.10;99.90;;;;;;4993674;28;20058;-75
2023/10/05 06:19:12;;;;;;;3.58;2.03;;;8.00;99.90;;;;;;4993714;28;20023;-75
2023/10/05 06:21:39;;;;;;;6.10;1.67;;;8.00;99.90;;;;;;4993865;28;20036;-75
2023/10/05 06:24:05;;;;;;;3.60;1.90;;;8.00;99.90;;;;;;4993437;28;20043;-75
2023/10/05 06:26:31;;;;;;;4.90;2.13;;;8.10;99.90;;;;;;4992982;28;20037;-75
2023/10/05 06:28:57;;;;;;;4.05;2.00;;;8.20;99.90;;;;;;4993668;28;20030;-75
2023/10/05 06:31:23;;;;;;;2.60;1.73;;;8.20;99.90;;;;;;4993675;28;20498;-75
2023/10/05 06:33:49;;;;;;;3.95;2.03;;;8.20;99.90;;;;;;4993931;28;20513;-75
2023/10/05 06:36:15;;;;;;;3.20;1.80;;;8.30;99.90;;;;;;4976228;28;20501;-75
2023/10/05 06:38:40;;;;;;;3.22;2.00;;;8.20;99.90;;;;;;4976169;28;20085;-75
2023/10/05 06:41:07;;;;;;;5.25;3.00;;;8.20;99.90;;;;;;4994677;28;20054;-75
2023/10/05 06:43:35;;;;;;;3.97;2.30;;;8.30;99.90;;;;;;4997289;28;20402;-75
2023/10/05 06:46:14;;;;;;;5.32;2.72;;;8.20;99.90;;;;;;4997132;28;20023;-75
2023/10/05 06:48:40;;;;;;;6.38;2.83;;;8.20;99.90;;;;;;4997788;28;20073;-76
2023/10/05 06:51:07;;;;;;;6.95;3.60;;;8.20;99.90;;;;;;4997036;28;20540;-75
2023/10/05 06:53:32;;;;;;;6.75;3.20;;;8.20;99.90;;;;;;4979869;28;20062;-75
2023/10/05 06:55:58;;;;;;;8.50;3.95;;;8.20;99.90;;;;;;4979818;28;20026;-76
2023/10/05 06:58:24;;;;;;;7.93;3.75;;;8.20;99.90;;;;;;4997286;28;20426;-75
2023/10/05 07:00:51;;;;;;;9.63;4.55;;;8.30;99.90;;;;;;4996945;28;20080;-75
2023/10/05 07:03:16;;;;;;;8.73;4.55;;;8.40;99.90;;;;;;4996886;28;20030;-75
2023/10/05 07:05:42;;;;;;;9.52;4.63;;;8.50;99.90;;;;;;4996777;28;20121;-75
2023/10/05 07:08:08;;;;;;;14.00;6.95;;;8.60;99.90;;;;;;4997314;28;20026;-75
2023/10/05 07:10:34;;;;;;;12.05;5.93;;;8.60;99.90;;;;;;4979363;28;20031;-75
2023/10/05 07:12:59;;;;;;;10.10;5.45;;;8.70;99.90;;;;;;4996815;28;20574;-75
2023/10/05 07:15:25;;;;;;;14.82;6.80;;;8.70;99.90;;;;;;4979075;28;20125;-76
2023/10/05 07:17:51;;;;;;;15.13;7.90;;;8.80;99.90;;;;;;4996626;28;20027;-75
2023/10/05 07:20:18;;;;;;;17.27;8.48;;;8.80;99.90;;;;;;4997129;28;20049;-75
2023/10/05 07:22:46;;;;;;;17.63;8.63;;;8.90;99.90;;;;;;4979056;28;20034;-75
2023/10/05 07:25:12;;;;;;;20.13;9.30;;;8.90;99.90;;;;;;4996373;28;20484;-75
2023/10/05 07:27:39;;;;;;;14.90;8.40;;;8.90;99.90;;;;;;4996468;28;20026;-75
2023/10/05 07:30:06;;;;;;;16.20;8.27;;;8.90;99.90;;;;;;4962955;28;20062;-75
2023/10/05 07:32:34;;;;;;;16.27;9.10;;;8.90;99.90;;;;;;4996329;28;20040;-75
2023/10/05 07:35:05;;;;;;;18.58;8.57;;;9.00;99.90;;;;;;4996294;28;20073;-75
2023/10/05 07:37:35;;;;;;;16.95;8.40;;;9.00;99.90;;;;;;4996907;28;20355;-75
2023/10/05 07:40:04;;;;;;;13.73;7.72;;;9.00;99.90;;;;;;4996388;28;20023;-75
2023/10/05 07:42:29;;;;;;;12.48;6.78;;;9.00;99.90;;;;;;4996469;28;20026;-76
2023/10/05 07:44:56;;;;;;;11.05;6.60;;;9.10;99.90;;;;;;4996048;28;20038;-76
2023/10/05 07:47:24;;;;;;;11.10;6.05;;;9.10;99.90;;;;;;4996419;28;20069;-75
2023/10/05 07:49:52;;;;;;;10.10;5.78;;;9.20;99.90;;;;;;4996146;28;20030;-76
2023/10/05 07:52:18;;;;;;;10.48;5.13;;;9.20;99.90;;;;;;4978887;28;20494;-75
2023/10/05 07:54:43;;;;;;;8.80;4.90;;;9.30;99.90;;;;;;4996585;28;20030;-75
2023/10/05 07:57:10;;;;;;;9.13;5.35;;;9.30;99.90;;;;;;4996445;28;20116;-76
2023/10/05 07:59:43;;;;;;;11.07;5.65;;;9.40;99.90;;;;;;4995855;28;20084;-75
2023/10/05 08:02:14;;;;;;;12.93;6.22;;;9.40;99.90;;;;;;4996247;28;20125;-76
2023/10/05 08:04:41;;;;;;;11.98;6.15;;;9.40;99.90;;;;;;4996033;28;20026;-75
2023/10/05 08:07:08;;;;;;;10.63;6.32;;;9.40;99.90;;;;;;4995737;28;20041;-76
2023/10/05 08:09:34;;;;;;;9.57;5.70;;;9.40;99.90;;;;;;4978277;28;20475;-75
2023/10/05 08:12:00;;;;;;;12.07;5.32;;;9.40;99.90;;;;;;4995611;28;20030;-75
2023/10/05 08:14:30;;;;;;;11.95;5.95;;;9.40;99.90;;;;;;4978046;28;20382;-75
2023/10/05 08:16:57;;;;;;;8.95;5.10;;;9.50;99.90;;;;;;4995531;28;20025;-75
2023/10/05 08:19:26;;;;;;;11.05;6.30;;;9.60;99.90;;;;;;4995530;28;20023;-76
2023/10/05 08:21:53;;;;;;;11.88;5.53;;;9.80;99.90;;;;;;4995458;28;20042;-76
2023/10/05 08:24:20;;;;;;;8.48;5.30;;;9.90;99.90;;;;;;4995303;28;20027;-75
2023/10/05 08:26:49;;;;;;;11.40;5.90;;;10.00;99.90;;;;;;4995283;28;20034;-75
2023/10/05 08:29:16;;;;;;;8.40;4.72;;;10.10;99.90;;;;;;4995589;28;20423;-76
2023/10/05 08:31:44;;;;;;;11.02;6.00;;;10.20;99.90;;;;;;4995477;28;20467;-75
2023/10/05 08:34:11;;;;;;;8.57;4.70;;;10.30;99.90;;;;;;4995468;28;20105;-75
2023/10/05 08:36:38;;;;;;;9.57;4.97;;;10.40;99.90;;;;;;4995080;28;20033;-75
2023/10/05 08:39:04;;;;;;;8.98;4.70;;;10.50;99.90;;;;;;4977681;28;20030;-75
2023/10/05 08:41:36;;;;;;;11.00;4.95;;;10.60;99.90;;;;;;4995107;28;20022;-75
2023/10/05 08:46:53;;;;;;;8.75;4.35;;;10.70;99.90;;;;;;4995298;28;20085;-75
2023/10/05 08:49:19;;;;;;;8.45;4.45;;;10.90;99.90;;;;;;4977479;28;20031;-75
2023/10/05 08:51:45;;;;;;;8.10;3.53;;;11.00;99.90;;;;;;4994829;28;20026;-75
2023/10/05 08:54:14;;;;;;;9.48;4.45;;;11.10;99.90;;;;;;4977393;28;20026;-75
2023/10/05 08:56:41;;;;;;;9.25;4.53;;;11.20;99.90;;;;;;5006556;28;20422;-75
2023/10/05 08:59:13;;;;;;;8.00;4.13;;;11.30;99.90;;;;;;5014399;28;20025;-75
2023/10/05 09:01:50;;;;;;;7.28;4.20;;;11.40;99.90;;;;;;5014585;28;20563;-75
2023/10/05 09:06:47;;;;;;;8.15;4.68;;;11.70;99.90;;;;;;5014274;28;20022;-75
2023/10/05 09:09:14;;;;;;;;;;;11.80;99.90;;;;;;4997020;28;20042;-75
2023/10/05 09:11:40;;;;;;;7.85;3.80;;;12.00;99.90;;;;;;4997156;28;19913;-75
2023/10/05 09:14:27;;;;;;;8.00;4.20;;;12.20;99.90;;;;;;5014138;28;20394;-75
2023/10/05 09:17:09;;;;;;;10.95;3.80;;;12.40;99.90;;;;;;4996490;28;20030;-75
2023/10/05 09:19:37;;;;;;;7.47;3.60;;;12.50;99.90;;;;;;5014155;28;20028;-75
2023/10/05 09:22:14;;;;;;;6.57;3.80;;;12.70;99.90;;;;;;5014603;28;20032;-75
2023/10/05 09:24:48;;;;;;;7.32;3.42;;;12.80;99.90;;;;;;5013887;28;20407;-75
2023/10/05 09:27:14;;;;;;;6.95;3.88;;;13.00;99.90;;;;;;5014981;28;20034;-74
2023/10/05 09:29:41;;;;;;;8.70;3.75;;;13.20;99.90;;;;;;5013934;28;20029;-74
2023/10/05 09:32:21;;;;;;;5.43;2.92;;;13.30;99.90;;;;;;5013797;28;20033;-74
2023/10/05 09:34:49;;;;;;;7.80;3.60;;;13.40;99.90;;;;;;5013777;28;20471;-74
2023/10/05 09:37:16;;;;;;;7.22;3.55;;;13.60;99.90;;;;;;5013814;28;20540;-74
2023/10/05 09:39:47;;;;;;;5.38;3.00;;;13.60;99.90;;;;;;5014052;28;20056;-74
2023/10/05 09:42:22;;;;;;;5.75;3.10;;;13.70;99.90;;;;;;5013913;28;20026;-74
2023/10/05 09:44:51;;;;;;;6.65;3.72;;;13.80;99.90;;;;;;5013670;28;20113;-75
2023/10/05 09:47:32;;;;;;;7.05;3.30;;;13.90;99.90;;;;;;5014279;28;20505;-75
2023/10/05 09:50:13;;;;;;;6.38;3.50;;;14.10;99.90;;;;;;5013829;28;20037;-74
2023/10/05 09:52:43;;;;;;;6.00;3.17;;;14.30;99.90;;;;;;5013664;28;20528;-74
2023/10/05 09:55:18;;;;;;;6.35;3.15;;;14.40;99.90;;;;;;5013547;28;20053;-74
2023/10/05 09:57:51;;;;;;;7.07;3.00;;;14.50;99.90;;;;;;5013583;28;20030;-74
2023/10/05 10:00:47;;;;;;;6.78;3.10;;;14.70;99.90;;;;;;5013879;28;20092;-75
2023/10/05 10:03:15;;;;;;;7.00;3.25;;;14.70;99.90;;;;;;5013617;28;20081;-74
2023/10/05 10:06:12;;;;;;;5.18;2.70;;;14.80;99.90;;;;;;4995815;28;20026;-74
2023/10/05 10:08:51;;;;;;;6.88;3.08;;;14.90;99.90;;;;;;5008595;28;20379;-74
2023/10/05 10:11:18;;;;;;;6.43;3.28;;;15.00;99.90;;;;;;5013838;28;20022;-74
2023/10/05 10:14:01;;;;;;;6.57;3.17;;;15.10;99.90;;;;;;4996222;28;20029;-74
2023/10/05 10:16:28;;;;;;;5.78;3.25;;;15.20;99.90;;;;;;5015178;28;20060;-74
2023/10/05 10:19:07;;;;;;;6.72;3.28;;;15.20;99.90;;;;;;5017475;28;20022;-74
2023/10/05 10:21:46;;;;;;;5.30;2.65;;;15.30;99.90;;;;;;5017787;28;20057;-74
2023/10/05 10:24:17;;;;;;;7.00;2.90;;;15.40;99.90;;;;;;5017570;28;20026;-74
2023/10/05 10:27:15;;;;;;;5.38;2.55;;;15.50;99.90;;;;;;5017149;28;20033;-74
2023/10/05 10:29:53;;;;;;;5.60;3.10;;;15.60;99.90;;;;;;5017179;28;20024;-74
2023/10/05 10:32:31;;;;;;;4.68;2.58;;;15.70;99.90;;;;;;5017085;28;20510;-74
2023/10/05 10:35:13;;;;;;;5.55;3.05;;;15.80;99.90;;;;;;5017177;28;20030;-74
2023/10/05 10:37:42;;;;;;;5.57;2.90;;;15.90;99.90;;;;;;5017641;28;20021;-74
2023/10/05 10:42:54;;;;;;;6.32;2.83;;;16.00;99.90;;;;;;5017464;28;20030;-74
2023/10/05 10:45:28;;;;;;;5.38;2.90;;;16.10;99.90;;;;;;5016812;28;20026;-74
2023/10/05 10:47:56;;;;;;;5.78;3.35;;;16.10;99.90;;;;;;5017129;28;20018;-74
2023/10/05 10:50:24;;;;;;;4.30;2.50;;;16.30;99.90;;;;;;5017014;28;20382;-74
2023/10/05 10:52:50;;;;;;;6.18;2.67;;;16.30;99.90;;;;;;4983122;28;20490;-74
2023/10/05 10:55:19;;;;;;;5.28;2.60;;;16.40;99.90;;;;;;5016891;28;20061;-73
2023/10/05 10:57:47;;;;;;;4.70;2.45;;;16.40;99.90;;;;;;5016636;28;20101;-74
2023/10/05 11:03:11;;;;;;;5.95;2.88;;;16.50;99.90;;;;;;5017040;28;20037;-73
2023/10/05 11:05:48;;;;;;;5.85;2.70;;;16.60;99.90;;;;;;5016505;28;20482;-73
2023/10/05 11:08:23;;;;;;;6.43;2.60;;;16.80;99.90;;;;;;5016443;28;20036;-73
2023/10/05 11:10:59;;;;;;;5.75;3.10;;;16.90;99.90;;;;;;5016323;28;20498;-74
2023/10/05 11:13:25;;;;;;;4.18;2.53;;;17.00;99.90;;;;;;5016875;28;20037;-73
2023/10/05 11:15:59;;;;;;;6.05;2.63;;;17.00;99.90;;;;;;5016514;28;20030;-74
2023/10/05 11:18:38;;;;;;;5.53;2.75;;;17.00;99.90;;;;;;5016316;28;20022;-74
2023/10/05 11:21:16;;;;;;;6.00;3.00;;;17.20;99.90;;;;;;5016248;28;20034;-74
2023/10/05 11:23:58;;;;;;;6.38;3.00;;;17.30;99.90;;;;;;5016471;28;20430;-75
2023/10/05 11:26:33;;;;;;;6.28;2.67;;;17.50;99.90;;;;;;5015803;28;20033;-74
2023/10/05 11:28:59;;;;;;;5.00;2.72;;;17.60;99.90;;;;;;5016379;28;20026;-74
2023/10/05 11:31:34;;;;;;;4.95;2.60;;;17.70;99.90;;;;;;5016148;28;20077;-74
2023/10/05 11:34:09;;;;;;;7.20;3.22;;;17.80;99.90;;;;;;5016287;28;20021;-73
2023/10/05 11:36:39;;;;;;;7.28;3.17;;;18.00;99.90;;;;;;5015837;28;20057;-73
2023/10/05 11:39:08;;;;;;;5.83;2.90;;;18.20;99.90;;;;;;5015890;28;20028;-73
2023/10/05 11:41:34;;;;;;;4.35;2.58;;;18.30;99.90;;;;;;5015971;28;20034;-74
2023/10/05 11:44:01;;;;;;;5.80;3.00;;;18.30;99.90;;;;;;5016191;28;20034;-74
2023/10/05 11:46:57;;;;;;;5.65;2.50;;;18.40;99.90;;;;;;5015666;28;20080;-74
2023/10/05 11:49:42;;;;;;;4.45;2.75;;;18.50;99.90;;;;;;4996250;28;20398;-74
2023/10/05 11:52:11;;;;;;;4.57;2.20;;;18.40;99.90;;;;;;4976874;28;20418;-74
2023/10/05 11:54:39;;;;;;;4.20;2.55;;;18.40;99.90;;;;;;4967836;28;20387;-74
2023/10/05 11:57:06;;;;;;;5.30;2.50;;;18.40;99.90;;;;;;4995702;28;20116;-74
2023/10/05 11:59:35;;;;;;;3.90;2.22;;;18.30;99.90;;;;;;4978433;28;20022;-74
2023/10/05 12:02:05;;;;;;;5.43;2.35;;;18.40;99.90;;;;;;4995927;28;20096;-74
2023/10/05 12:04:31;;;;;;;6.03;2.15;;;18.50;99.90;;;;;;4996185;28;20030;-73
2023/10/05 12:06:59;;;;;;;4.82;2.30;;;18.60;99.90;;;;;;4996151;28;20023;-74
2023/10/05 12:09:33;;;;;;;3.88;1.88;;;18.60;99.90;;;;;;4995631;28;20437;-74
2023/10/05 12:12:01;;;;;;;3.88;2.13;;;18.70;99.90;;;;;;4995886;28;20096;-74
2023/10/05 12:14:27;;;;;;;4.13;2.00;;;18.70;99.90;;;;;;4995502;28;20065;-73
2023/10/05 12:16:57;;;;;;;6.32;2.50;;;18.80;99.90;;;;;;4995770;28;20125;-73
2023/10/05 12:19:29;;;;;;;4.78;2.40;;;18.70;99.90;;;;;;4978038;28;20116;-74
2023/10/05 12:21:57;;;;;;;3.72;1.95;;;18.80;99.90;;;;;;4995615;28;20482;-74
2023/10/05 12:24:23;;;;;;;4.15;2.40;;;18.90;99.90;;;;;;4995405;28;20034;-75
2023/10/05 12:26:50;;;;;;;4.05;2.00;;;19.00;99.90;;;;;;4995650;28;20054;-74
2023/10/05 12:29:16;;;;;;;4.75;1.98;;;19.00;99.90;;;;;;4995047;28;20023;-73
2023/10/05 12:31:44;;;;;;;5.10;2.45;;;19.00;99.90;;;;;;4995384;28;20034;-73
2023/10/05 12:34:16;;;;;;;6.38;2.42;;;19.00;99.90;;;;;;4995470;28;20026;-74
2023/10/05 12:36:51;;;;;;;4.32;2.10;;;18.90;99.90;;;;;;4995209;28;20033;-74
2023/10/05 12:39:20;;;;;;;5.38;2.00;;;18.80;99.90;;;;;;4994617;28;20025;-74
2023/10/05 12:41:49;;;;;;;3.90;1.92;;;18.80;99.90;;;;;;4995334;28;20034;-74
2023/10/05 12:44:15;;;;;;;4.43;2.15;;;19.00;99.90;;;;;;4995091;28;20367;-74
2023/10/05 12:46:42;;;;;;;4.57;2.08;;;19.00;99.90;;;;;;4995174;28;20029;-73
2023/10/05 12:49:08;;;;;;;4.55;2.25;;;19.10;99.90;;;;;;4995244;28;20026;-74
2023/10/05 12:51:38;;;;;;;4.32;1.98;;;19.10;99.90;;;;;;4994915;28;20497;-74
2023/10/05 12:54:09;;;;;;;3.38;1.60;;;19.10;99.90;;;;;;4994858;28;20391;-74
2023/10/05 12:56:38;;;;;;;4.40;2.10;;;19.20;99.90;;;;;;4994824;28;20027;-74
2023/10/05 12:59:07;;;;;;;4.03;2.08;;;19.10;99.90;;;;;;4994906;28;20030;-72
2023/10/05 13:01:41;;;;;;;4.75;2.25;;;19.20;99.90;;;;;;4994014;28;20042;-73
2023/10/05 13:04:16;;;;;;;4.30;2.30;;;19.10;99.90;;;;;;4995044;28;20034;-74
2023/10/05 13:06:44;;;;;;;5.30;2.55;;;19.20;99.90;;;;;;4977408;28;20065;-73
2023/10/05 13:09:18;;;;;;;4.63;2.40;;;19.10;99.90;;;;;;4994592;28;20076;-73
2023/10/05 13:11:45;;;;;;;5.68;2.25;;;19.10;99.90;;;;;;4977022;28;20042;-73
2023/10/05 13:14:14;;;;;;;4.57;2.45;;;19.10;99.90;;;;;;4994850;28;20376;-73
2023/10/05 13:16:51;;;;;;;4.35;2.30;;;19.00;99.90;;;;;;4994451;28;20033;-73
2023/10/05 13:19:18;;;;;;;5.05;2.00;;;19.00;99.90;;;;;;4994430;28;20026;-73
2023/10/05 13:21:44;;;;;;;4.85;2.45;;;18.90;99.90;;;;;;4977792;28;20027;-73
2023/10/05 13:24:11;;;;;;;5.32;2.17;;;18.90;99.90;;;;;;4994473;28;20032;-73